Weather Underground History page Text

Daily Summary for January 22, 2019 Units:  English    Metric   Both
« Previous Day
Next Day »
Daily Weekly Monthly Yearly Custom
  Current: High: Low: Average:
Temperature: 48.4 °F TemperatureF °F 25.2 °F 40 °F
Dew Point: 34.7 °F DewpointF °F 14.7 °F 23.8 °F
Humidity: 59 % Humidity % 34 % 53 %
Wind Speed: 8.1 mph WindSpeedMPH mph 0.0 mph 5.2 mph
Wind Gust: 4.8 mph WindSpeedGustMPH mph - -
Wind:ESE - - SE
Pressure: 30.25 in PressureIn in 30.25 in -
Precipitation: 0.00 in      
Historical Graphs
 
 
Tabular Data for January 22, 2019
Time Temperature Dew Point Pressure Wind Wind Speed Wind Gust Humidity Rainfall Rate (Hourly)
TemperatureF °F DewpointF °F PressureIn in Calm     Humidity % HourlyPrecipIn in
00:04 25.4 °F 17.0 °F 30.40 in Calm     70 % 0.00 in
00:09 25.4 °F 17.0 °F 30.40 in Calm     70 % 0.00 in
00:14 25.5 °F 17.4 °F 30.40 in Calm     71 % 0.00 in
00:19 25.6 °F 16.8 °F 30.41 in Calm     69 % 0.00 in
00:24 25.6 °F 17.2 °F 30.40 in Calm     70 % 0.00 in
00:29 25.6 °F 16.8 °F 30.40 in Calm     69 % 0.00 in
00:34 25.7 °F 15.9 °F 30.40 in Calm     66 % 0.00 in
00:39 25.7 °F 15.6 °F 30.40 in Calm     65 % 0.00 in
00:44 25.7 °F 15.2 °F 30.39 in Calm     64 % 0.00 in
00:49 25.7 °F 15.2 °F 30.39 in Calm     64 % 0.00 in
00:54 25.6 °F 15.1 °F 30.39 in Calm     64 % 0.00 in
00:59 25.6 °F 15.1 °F 30.40 in Calm     64 % 0.00 in
01:04 25.6 °F 14.7 °F 30.40 in Calm     63 % 0.00 in
01:09 25.6 °F 15.5 °F 30.40 in Calm     65 % 0.00 in
01:14 25.6 °F 15.8 °F 30.40 in Calm     66 % 0.00 in
01:19 25.4 °F 16.0 °F 30.40 in Calm     67 % 0.00 in
01:24 25.3 °F 16.2 °F 30.40 in Calm     68 % 0.00 in
01:29 25.2 °F 16.1 °F 30.40 in Calm     68 % 0.00 in
01:34 25.2 °F 16.1 °F 30.40 in Calm     68 % 0.00 in
01:39 25.2 °F 16.1 °F 30.40 in Calm     68 % 0.00 in
01:44 25.2 °F 16.5 °F 30.40 in Calm     69 % 0.00 in
01:49 25.3 °F 16.5 °F 30.40 in Calm     69 % 0.00 in
01:54 25.3 °F 16.5 °F 30.40 in Calm     69 % 0.00 in
01:59 25.4 °F 16.6 °F 30.40 in Calm     69 % 0.00 in
02:04 25.4 °F 16.6 °F 30.40 in Calm     69 % 0.00 in
02:09 25.5 °F 16.1 °F 30.40 in Calm     67 % 0.00 in
02:14 25.6 °F 15.8 °F 30.40 in Calm     66 % 0.00 in
02:19 25.7 °F 15.6 °F 30.40 in Calm     65 % 0.00 in
02:24 26.0 °F 15.5 °F 30.40 in Calm     64 % 0.00 in
02:29 26.2 °F 16.0 °F 30.40 in Calm     65 % 0.00 in
02:34 26.2 °F 16.0 °F 30.40 in Calm     65 % 0.00 in
02:39 26.2 °F 15.7 °F 30.40 in Calm     64 % 0.00 in
02:44 26.1 °F 15.6 °F 30.41 in Calm     64 % 0.00 in
02:49 26.0 °F 15.5 °F 30.40 in Calm     64 % 0.00 in
02:54 26.0 °F 15.8 °F 30.41 in Calm     65 % 0.00 in
02:59 25.9 °F 15.7 °F 30.41 in Calm     65 % 0.00 in
03:04 25.9 °F 15.7 °F 30.41 in Calm     65 % 0.00 in
03:09 26.0 °F 15.8 °F 30.41 in Calm     65 % 0.00 in
03:14 26.1 °F 16.3 °F 30.41 in Calm     66 % 0.00 in
03:19 26.2 °F 16.4 °F 30.41 in Calm     66 % 0.00 in
03:24 26.2 °F 16.4 °F 30.41 in Calm     66 % 0.00 in
03:29 26.3 °F 16.8 °F 30.41 in SE 2.3 mph 0.3 mph 67 % 0.00 in
03:34 26.4 °F 16.9 °F 30.41 in Calm     67 % 0.00 in
03:39 26.4 °F 16.6 °F 30.41 in Calm     66 % 0.00 in
03:44 26.3 °F 16.8 °F 30.41 in Calm     67 % 0.00 in
03:49 26.3 °F 17.2 °F 30.41 in Calm     68 % 0.00 in
03:54 26.5 °F 17.7 °F 30.41 in SE 2.3 mph 1.2 mph 69 % 0.00 in
03:59 26.6 °F 17.8 °F 30.42 in Calm     69 % 0.00 in
04:04 26.7 °F 17.6 °F 30.41 in Calm     68 % 0.00 in
04:09 26.7 °F 17.2 °F 30.41 in Calm     67 % 0.00 in
04:14 26.6 °F 17.5 °F 30.41 in Calm     68 % 0.00 in
04:19 26.7 °F 18.6 °F 30.42 in Calm     71 % 0.00 in
04:24 27.3 °F 18.5 °F 30.41 in SE 3.5 mph 1.8 mph 69 % 0.00 in
04:29 28.1 °F 18.5 °F 30.41 in SE 3.5 mph 1.9 mph 67 % 0.00 in
04:34 28.8 °F 18.9 °F 30.42 in SE 2.3 mph 1.6 mph 66 % 0.00 in
04:39 29.4 °F 19.1 °F 30.41 in SE 3.5 mph 1.6 mph 65 % 0.00 in
04:44 29.9 °F 19.2 °F 30.42 in SE 2.3 mph 1.6 mph 64 % 0.00 in
04:49 30.3 °F 19.2 °F 30.41 in SE 2.3 mph 1.7 mph 63 % 0.00 in
04:54 30.6 °F 19.5 °F 30.42 in SE 2.3 mph 1.8 mph 63 % 0.00 in
04:59 30.7 °F 19.2 °F 30.42 in SE 3.5 mph 1.5 mph 62 % 0.00 in
05:04 30.8 °F 19.3 °F 30.42 in SE 2.3 mph 1.9 mph 62 % 0.00 in
05:09 30.8 °F 19.3 °F 30.43 in SE 3.5 mph 2.0 mph 62 % 0.00 in
05:14 30.9 °F 19.0 °F 30.43 in SE 2.3 mph 1.5 mph 61 % 0.00 in
05:19 31.0 °F 19.1 °F 30.43 in SE 3.5 mph 1.7 mph 61 % 0.00 in
05:24 31.0 °F 19.1 °F 30.43 in SE 3.5 mph 1.9 mph 61 % 0.00 in
05:29 31.1 °F 18.8 °F 30.43 in SE 3.5 mph 2.1 mph 60 % 0.00 in
05:34 31.3 °F 18.6 °F 30.43 in SE 3.5 mph 2.2 mph 59 % 0.00 in
05:39 31.4 °F 18.7 °F 30.43 in ESE 3.5 mph 2.1 mph 59 % 0.00 in
05:44 31.6 °F 18.5 °F 30.43 in ESE 3.5 mph 2.1 mph 58 % 0.00 in
05:49 31.8 °F 18.7 °F 30.43 in SE 3.5 mph 1.9 mph 58 % 0.00 in
05:54 31.9 °F 18.4 °F 30.43 in SE 3.5 mph 2.0 mph 57 % 0.00 in
05:59 32.0 °F 18.5 °F 30.43 in SE 3.5 mph 2.3 mph 57 % 0.00 in
06:04 32.0 °F 18.5 °F 30.43 in SE 3.5 mph 1.8 mph 57 % 0.00 in
06:09 32.0 °F 18.1 °F 30.43 in SE 3.5 mph 2.2 mph 56 % 0.00 in
06:14 32.1 °F 18.2 °F 30.44 in ESE 3.5 mph 2.0 mph 56 % 0.00 in
06:19 32.2 °F 17.8 °F 30.44 in SSE 3.5 mph 2.3 mph 55 % 0.00 in
06:24 32.3 °F 17.9 °F 30.43 in SE 3.5 mph 2.4 mph 55 % 0.00 in
06:29 32.4 °F 17.6 °F 30.43 in ESE 3.5 mph 2.2 mph 54 % 0.00 in
06:34 32.6 °F 17.8 °F 30.43 in SE 3.5 mph 2.3 mph 54 % 0.00 in
06:39 32.7 °F 17.9 °F 30.43 in SE 3.5 mph 2.6 mph 54 % 0.00 in
06:44 32.8 °F 18.0 °F 30.43 in SE 3.5 mph 2.3 mph 54 % 0.00 in
06:49 32.8 °F 17.5 °F 30.43 in ESE 2.3 mph 2.0 mph 53 % 0.00 in
06:54 32.9 °F 17.6 °F 30.43 in ESE 3.5 mph 2.1 mph 53 % 0.00 in
06:59 32.9 °F 17.6 °F 30.44 in ESE 3.5 mph 1.9 mph 53 % 0.00 in
07:04 32.9 °F 17.6 °F 30.44 in ESE 3.5 mph 2.7 mph 53 % 0.00 in
07:09 32.9 °F 17.6 °F 30.44 in ESE 3.5 mph 2.2 mph 53 % 0.00 in
07:14 33.0 °F 17.7 °F 30.43 in ESE 3.5 mph 2.2 mph 53 % 0.00 in
07:19 33.1 °F 17.8 °F 30.43 in ESE 3.5 mph 2.2 mph 53 % 0.00 in
07:24 33.2 °F 17.9 °F 30.43 in ESE 4.0 mph 2.1 mph 53 % 0.00 in
07:29 33.3 °F 18.0 °F 30.43 in SE 3.5 mph 1.6 mph 53 % 0.00 in
07:34 33.4 °F 18.1 °F 30.43 in SE 3.5 mph 1.6 mph 53 % 0.00 in
07:39 33.5 °F 18.2 °F 30.44 in SE 3.5 mph 1.7 mph 53 % 0.00 in
07:44 33.7 °F 18.4 °F 30.44 in SE 3.5 mph 1.8 mph 53 % 0.00 in
07:49 33.9 °F 18.6 °F 30.44 in SE 3.5 mph 1.8 mph 53 % 0.00 in
07:54 34.1 °F 18.7 °F 30.44 in ESE 3.5 mph 2.0 mph 53 % 0.00 in
07:59 34.3 °F 18.9 °F 30.44 in SE 3.5 mph 2.3 mph 53 % 0.00 in
08:04 34.7 °F 18.9 °F 30.45 in SE 3.5 mph 1.7 mph 52 % 0.00 in
08:09 34.9 °F 19.5 °F 30.45 in SE 2.3 mph 1.5 mph 53 % 0.00 in
08:14 35.2 °F 19.3 °F 30.45 in SE 3.5 mph 2.0 mph 52 % 0.00 in
08:19 35.7 °F 19.3 °F 30.45 in SE 6.9 mph 3.9 mph 51 % 0.00 in
08:24 36.1 °F 19.2 °F 30.45 in SSE 7.0 mph 4.0 mph 50 % 0.00 in
08:29 36.7 °F 19.3 °F 30.45 in SE 3.5 mph 2.1 mph 49 % 0.00 in
08:34 37.2 °F 19.3 °F 30.45 in SSE 8.0 mph 3.1 mph 48 % 0.00 in
08:39 37.7 °F 19.3 °F 30.45 in SE 9.0 mph 4.5 mph 47 % 0.00 in
08:44 38.2 °F 19.2 °F 30.45 in SE 6.9 mph 4.1 mph 46 % 0.00 in
08:49 38.6 °F 19.6 °F 30.45 in ESE 10.4 mph 4.2 mph 46 % 0.00 in
08:54 38.8 °F 18.7 °F 30.45 in SE 11.5 mph 5.1 mph 44 % 0.00 in
08:59 39.1 °F 19.0 °F 30.44 in SSE 8.1 mph 4.4 mph 44 % 0.00 in
09:04 39.4 °F 19.3 °F 30.44 in South 8.1 mph 4.3 mph 44 % 0.00 in
09:09 39.8 °F 19.1 °F 30.44 in SE 7.0 mph 3.9 mph 43 % 0.00 in
09:14 40.2 °F 19.5 °F 30.43 in SE 8.1 mph 3.5 mph 43 % 0.00 in
09:19 40.6 °F 19.8 °F 30.43 in SSE 7.0 mph 3.6 mph 43 % 0.00 in
09:24 41.1 °F 19.2 °F 30.43 in SE 8.1 mph 5.4 mph 41 % 0.00 in
09:29 41.5 °F 18.4 °F 30.43 in SE 11.5 mph 6.2 mph 39 % 0.00 in
09:34 41.8 °F 18.6 °F 30.42 in SSE 11.5 mph 7.0 mph 39 % 0.00 in
09:39 42.0 °F 18.8 °F 30.42 in SE 12.7 mph 5.9 mph 39 % 0.00 in
09:44 42.4 °F 19.8 °F 30.42 in SSE 8.1 mph 4.3 mph 40 % 0.00 in
09:49 42.8 °F 19.5 °F 30.43 in SE 9.2 mph 5.4 mph 39 % 0.00 in
09:54 43.1 °F 19.2 °F 30.42 in SSE 10.0 mph 6.0 mph 38 % 0.00 in
09:59 43.1 °F 19.8 °F 30.43 in SE 10.4 mph 6.5 mph 39 % 0.00 in
10:04 43.2 °F 19.9 °F 30.43 in SE 8.1 mph 3.1 mph 39 % 0.00 in
10:09 43.4 °F 19.5 °F 30.43 in SSE 13.0 mph 7.3 mph 38 % 0.00 in
10:14 43.7 °F 19.7 °F 30.42 in SE 11.5 mph 6.9 mph 38 % 0.00 in
10:19 43.9 °F 19.9 °F 30.42 in SSE 11.5 mph 7.4 mph 38 % 0.00 in
10:24 44.2 °F 20.2 °F 30.42 in South 5.8 mph 3.8 mph 38 % 0.00 in
10:29 44.6 °F 19.9 °F 30.42 in SE 10.4 mph 5.7 mph 37 % 0.00 in
10:34 44.8 °F 20.1 °F 30.42 in SE 9.2 mph 6.5 mph 37 % 0.00 in
10:39 45.0 °F 20.3 °F 30.41 in SE 10.4 mph 6.6 mph 37 % 0.00 in
10:44 45.3 °F 20.5 °F 30.41 in SE 10.0 mph 6.2 mph 37 % 0.00 in
10:49 45.5 °F 20.1 °F 30.41 in SSE 11.5 mph 3.7 mph 36 % 0.00 in
10:54 45.9 °F 21.1 °F 30.41 in SSE 10.4 mph 5.3 mph 37 % 0.00 in
10:59 46.4 °F 21.5 °F 30.41 in WNW 10.4 mph 3.8 mph 37 % 0.00 in
11:04 47.0 °F 22.0 °F 30.41 in SSE 6.9 mph 4.8 mph 37 % 0.00 in
11:09 47.4 °F 21.7 °F 30.40 in ESE 9.2 mph 4.6 mph 36 % 0.00 in
11:14 47.8 °F 22.1 °F 30.40 in SSE 10.4 mph 4.2 mph 36 % 0.00 in
11:19 48.1 °F 22.4 °F 30.39 in SE 11.5 mph 8.0 mph 36 % 0.00 in
11:24 48.3 °F 22.5 °F 30.39 in SE 8.1 mph 5.1 mph 36 % 0.00 in
11:29 48.6 °F 21.5 °F 30.39 in ESE 11.5 mph 6.8 mph 34 % 0.00 in
11:34 48.8 °F 22.3 °F 30.38 in SE 11.5 mph 5.8 mph 35 % 0.00 in
11:39 49.1 °F 22.6 °F 30.39 in SE 8.0 mph 6.4 mph 35 % 0.00 in
11:44 49.2 °F 22.7 °F 30.39 in ENE 11.5 mph 6.1 mph 35 % 0.00 in
11:49 49.5 °F 22.3 °F 30.38 in SE 9.2 mph 6.4 mph 34 % 0.00 in
11:54 49.9 °F 24.0 °F 30.38 in SE 5.8 mph 3.1 mph 36 % 0.00 in
11:59 50.4 °F 23.7 °F 30.38 in ESE 10.4 mph 4.8 mph 35 % 0.00 in
12:04 50.6 °F 23.9 °F 30.38 in SE 9.0 mph 5.4 mph 35 % 0.00 in
12:09 50.8 °F 24.8 °F 30.37 in SE 8.1 mph 2.9 mph 36 % 0.00 in
12:14 51.2 °F 25.8 °F 30.37 in South 9.2 mph 4.9 mph 37 % 0.00 in
12:19 51.4 °F 27.2 °F 30.36 in ESE 6.9 mph 2.1 mph 39 % 0.00 in
12:25 51.7 °F 27.5 °F 30.36 in WNW 10.4 mph 3.2 mph 39 % 0.00 in
12:29 52.1 °F 26.6 °F 30.36 in SE 8.1 mph 4.8 mph 37 % 0.00 in
12:34 52.3 °F 26.8 °F 30.35 in SE 10.4 mph 5.5 mph 37 % 0.00 in
12:39 52.5 °F 28.8 °F 30.35 in SE 10.4 mph 5.9 mph 40 % 0.00 in
12:44 52.7 °F 28.4 °F 30.34 in SE 10.4 mph 6.3 mph 39 % 0.00 in
12:49 52.7 °F 30.2 °F 30.34 in SE 8.1 mph 4.1 mph 42 % 0.00 in
12:54 52.8 °F 29.7 °F 30.34 in SE 11.5 mph 6.8 mph 41 % 0.00 in
12:59 52.9 °F 30.4 °F 30.33 in ESE 8.1 mph 3.8 mph 42 % 0.00 in
13:04 53.1 °F 30.6 °F 30.33 in SSE 8.1 mph 3.9 mph 42 % 0.00 in
13:09 53.4 °F 29.7 °F 30.33 in SE 8.1 mph 4.4 mph 40 % 0.00 in
13:14 53.6 °F 30.4 °F 30.32 in ESE 10.4 mph 4.1 mph 41 % 0.00 in
13:19 53.8 °F 30.6 °F 30.32 in SE 9.2 mph 5.5 mph 41 % 0.00 in
13:24 53.7 °F 30.5 °F 30.32 in SE 11.5 mph 4.3 mph 41 % 0.00 in
13:29 53.8 °F 31.8 °F 30.31 in SE 11.5 mph 5.2 mph 43 % 0.00 in
13:34 53.9 °F 29.5 °F 30.31 in SE 10.4 mph 4.2 mph 39 % 0.00 in
13:39 54.1 °F 30.3 °F 30.31 in SSE 7.0 mph 4.7 mph 40 % 0.00 in
13:44 54.1 °F 30.9 °F 30.31 in SE 10.4 mph 5.6 mph 41 % 0.00 in
13:49 54.2 °F 31.6 °F 30.31 in SE 5.8 mph 2.8 mph 42 % 0.00 in
13:54 54.4 °F 31.8 °F 30.31 in East 6.9 mph 2.8 mph 42 % 0.00 in
13:59 54.3 °F 29.8 °F 30.30 in ESE 5.8 mph 4.1 mph 39 % 0.00 in
14:04 54.1 °F 30.9 °F 30.30 in SE 4.0 mph 3.0 mph 41 % 0.00 in
14:09 53.9 °F 30.7 °F 30.30 in SE 8.1 mph 3.9 mph 41 % 0.00 in
14:14 53.6 °F 31.6 °F 30.31 in SE 9.2 mph 5.6 mph 43 % 0.00 in
14:19 53.5 °F 31.5 °F 30.31 in ESE 5.8 mph 2.3 mph 43 % 0.00 in
14:24 53.4 °F 30.9 °F 30.30 in SE 8.1 mph 4.8 mph 42 % 0.00 in
14:29 53.1 °F 31.2 °F 30.30 in ESE 8.1 mph 5.5 mph 43 % 0.00 in
14:34 52.7 °F 31.4 °F 30.30 in SE 9.2 mph 5.2 mph 44 % 0.00 in
14:39 52.4 °F 31.7 °F 30.30 in SE 9.2 mph 3.3 mph 45 % 0.00 in
14:44 52.3 °F 32.1 °F 30.30 in ESE 7.0 mph 4.0 mph 46 % 0.00 in
14:49 52.3 °F 32.6 °F 30.30 in South 3.5 mph 3.0 mph 47 % 0.00 in
14:54 52.5 °F 33.9 °F 30.30 in SE 9.2 mph 4.3 mph 49 % 0.00 in
14:59 52.6 °F 34.0 °F 30.30 in SSE 5.8 mph 3.6 mph 49 % 0.00 in
15:04 52.6 °F 34.5 °F 30.30 in SE 5.8 mph 2.3 mph 50 % 0.00 in
15:09 52.6 °F 34.5 °F 30.29 in ESE 8.1 mph 4.0 mph 50 % 0.00 in
15:14 52.6 °F 35.0 °F 30.29 in ESE 6.0 mph 3.5 mph 51 % 0.00 in
15:19 52.6 °F 35.5 °F 30.30 in SE 4.6 mph 2.2 mph 52 % 0.00 in
15:24 52.5 °F 35.8 °F 30.29 in SE 3.5 mph 2.5 mph 53 % 0.00 in
15:29 52.5 °F 35.8 °F 30.29 in SE 3.5 mph 2.2 mph 53 % 0.00 in
15:34 52.4 °F 36.2 °F 30.29 in SSE 5.8 mph 4.0 mph 54 % 0.00 in
15:39 52.4 °F 36.7 °F 30.28 in SE 8.1 mph 4.3 mph 55 % 0.00 in
15:44 52.4 °F 36.7 °F 30.28 in SE 6.9 mph 4.4 mph 55 % 0.00 in
15:49 52.3 °F 36.6 °F 30.28 in SE 4.6 mph 2.0 mph 55 % 0.00 in
15:54 52.3 °F 36.6 °F 30.28 in SE 3.5 mph 2.6 mph 55 % 0.00 in
15:59 52.2 °F 36.5 °F 30.28 in SE 4.6 mph 2.5 mph 55 % 0.00 in
16:04 52.1 °F 36.9 °F 30.29 in SE 3.5 mph 2.4 mph 56 % 0.00 in
16:09 52.0 °F 36.8 °F 30.29 in ESE 3.5 mph 2.7 mph 56 % 0.00 in
16:14 51.8 °F 36.6 °F 30.28 in SE 5.8 mph 2.6 mph 56 % 0.00 in
16:19 51.6 °F 36.4 °F 30.28 in SE 6.9 mph 4.6 mph 56 % 0.00 in
16:24 51.4 °F 36.2 °F 30.29 in SE 4.6 mph 2.6 mph 56 % 0.00 in
16:29 51.2 °F 36.0 °F 30.28 in SE 6.9 mph 4.6 mph 56 % 0.00 in
16:34 51.1 °F 36.4 °F 30.27 in SE 6.9 mph 3.8 mph 57 % 0.00 in
16:39 50.9 °F 35.7 °F 30.27 in SE 8.1 mph 4.6 mph 56 % 0.00 in
16:44 50.8 °F 36.1 °F 30.27 in ESE 3.5 mph 3.0 mph 57 % 0.00 in
16:49 50.7 °F 36.0 °F 30.27 in ESE 3.5 mph 3.6 mph 57 % 0.00 in
16:54 50.5 °F 35.8 °F 30.27 in SE 3.5 mph 3.6 mph 57 % 0.00 in
16:59 50.4 °F 35.7 °F 30.27 in SE 8.1 mph 5.3 mph 57 % 0.00 in
17:04 50.3 °F 36.1 °F 30.27 in ESE 6.9 mph 4.2 mph 58 % 0.00 in
17:09 50.3 °F 36.1 °F 30.27 in SSW 5.0 mph 4.1 mph 58 % 0.00 in
17:14 50.2 °F 36.0 °F 30.27 in SE 9.2 mph 3.9 mph 58 % 0.00 in
17:19 50.2 °F 36.0 °F 30.27 in East 8.1 mph 4.3 mph 58 % 0.00 in
17:24 50.1 °F 35.9 °F 30.27 in ESE 7.0 mph 4.7 mph 58 % 0.00 in
17:29 50.1 °F 35.9 °F 30.27 in SE 8.1 mph 7.2 mph 58 % 0.00 in
17:34 50.1 °F 35.9 °F 30.27 in SE 6.9 mph 3.7 mph 58 % 0.00 in
17:39 50.1 °F 36.3 °F 30.26 in East 8.1 mph 3.6 mph 59 % 0.00 in
17:44 49.9 °F 35.7 °F 30.26 in East 9.2 mph 5.2 mph 58 % 0.00 in
17:49 49.7 °F 35.1 °F 30.27 in SE 10.4 mph 6.0 mph 57 % 0.00 in
17:54 49.5 °F 34.9 °F 30.27 in ESE 11.5 mph 4.3 mph 57 % 0.00 in
17:59 49.3 °F 35.1 °F 30.27 in SE 7.0 mph 4.1 mph 58 % 0.00 in
18:04 49.2 °F 35.0 °F 30.28 in ESE 4.6 mph 2.7 mph 58 % 0.00 in
18:09 49.0 °F 34.9 °F 30.26 in SE 6.9 mph 2.9 mph 58 % 0.00 in
18:14 49.0 °F 34.9 °F 30.27 in SSE 8.0 mph 3.5 mph 58 % 0.00 in
18:19 48.9 °F 34.8 °F 30.28 in SE 5.8 mph 3.1 mph 58 % 0.00 in
18:24 48.8 °F 34.7 °F 30.28 in SE 6.9 mph 3.8 mph 58 % 0.00 in
18:29 48.8 °F 35.1 °F 30.27 in ESE 7.0 mph 3.8 mph 59 % 0.00 in
18:34 48.7 °F 35.0 °F 30.27 in SSE 8.1 mph 4.4 mph 59 % 0.00 in
18:39 48.6 °F 34.9 °F 30.27 in ESE 7.0 mph 4.1 mph 59 % 0.00 in
18:44 48.6 °F 34.9 °F 30.26 in SE 6.9 mph 4.1 mph 59 % 0.00 in
18:49 48.5 °F 34.8 °F 30.26 in ESE 7.0 mph 4.7 mph 59 % 0.00 in
18:54 48.5 °F 34.8 °F 30.25 in ESE 9.2 mph 6.2 mph 59 % 0.00 in
18:59 48.4 °F 34.7 °F 30.25 in ESE 7.0 mph 4.9 mph 59 % 0.00 in
19:04 48.4 °F 34.7 °F 30.25 in SE 9.2 mph 4.9 mph 59 % 0.00 in
19:09 48.4 °F 34.7 °F 30.25 in ESE 8.1 mph 4.8 mph 59 % 0.00 in
Murfreesboro Weather Live
Compliments of Weather Underground - 3.75 mb

Script developed by  Jim McMurry - jmcmurry@mwt.net Adapted for the template by  Wim van der Kuil - Leuven-Template.eu